Time;durP1;ratioP1;P1;durP2;ratioP2;P2;SDS_P1;SDS_P2;PMS_P1;PMS_P2;Temp;Humidity;BMP_temperature;BMP_pressure;BME280_temperature;BME280_humidity;BME280_pressure;Samples;Min_cycle;Max_cycle;Signal;HPM_P1;HPM_P2
2022/04/21 00:00:45;;;;;;;12.60;6.18;;;8.60;99.90;;;;;;5046657;28;20469;-72
2022/04/21 00:03:11;;;;;;;10.00;5.00;;;8.50;99.90;;;;;;5044590;28;20049;-72
2022/04/21 00:05:37;;;;;;;11.20;5.70;;;8.50;99.90;;;;;;5041241;28;20033;-72
2022/04/21 00:08:03;;;;;;;12.13;5.82;;;8.50;99.90;;;;;;5043178;28;20048;-73
2022/04/21 00:10:29;;;;;;;11.93;5.85;;;8.50;99.90;;;;;;5047177;28;20443;-72
2022/04/21 00:12:57;;;;;;;9.93;5.72;;;8.50;99.90;;;;;;5046007;28;20142;-72
2022/04/21 00:15:24;;;;;;;10.88;5.80;;;8.50;99.90;;;;;;5043116;28;20048;-73
2022/04/21 00:17:50;;;;;;;11.57;5.88;;;8.50;99.90;;;;;;5042822;28;20098;-73
2022/04/21 00:20:15;;;;;;;9.65;6.03;;;8.40;99.90;;;;;;5041776;28;20045;-72
2022/04/21 00:25:29;;;;;;;12.80;6.28;;;8.40;99.90;;;;;;5045013;28;20500;-73
2022/04/21 00:27:55;;;;;;;12.48;5.88;;;8.40;99.90;;;;;;5046052;28;20103;-73
2022/04/21 00:30:21;;;;;;;12.50;6.63;;;8.40;99.90;;;;;;5047201;28;20041;-73
2022/04/21 00:32:47;;;;;;;11.80;6.57;;;8.40;99.90;;;;;;5051639;28;20053;-73
2022/04/21 00:35:15;;;;;;;11.00;6.15;;;8.30;99.90;;;;;;5046579;28;20051;-73
2022/04/21 00:37:54;;;;;;;13.73;6.47;;;8.30;99.90;;;;;;5041885;28;20838;-73
2022/04/21 00:40:22;;;;;;;12.30;6.22;;;8.30;99.90;;;;;;5037103;28;20049;-73
2022/04/21 00:42:48;;;;;;;12.00;5.97;;;8.20;99.90;;;;;;5024151;28;20128;-73
2022/04/21 00:45:17;;;;;;;11.48;7.00;;;8.20;99.90;;;;;;5043175;28;20041;-72
2022/04/21 00:47:45;;;;;;;13.65;6.57;;;8.20;99.90;;;;;;5042618;28;20048;-73
2022/04/21 00:50:22;;;;;;;12.15;7.10;;;8.20;99.90;;;;;;5043590;28;20060;-73
2022/04/21 00:52:50;;;;;;;11.45;6.75;;;8.10;99.90;;;;;;5046294;28;20037;-72
2022/04/21 00:55:16;;;;;;;16.45;7.43;;;8.10;99.90;;;;;;5040097;28;20045;-73
2022/04/21 00:57:43;;;;;;;11.90;6.88;;;8.10;99.90;;;;;;5049283;28;20571;-73
2022/04/21 01:00:11;;;;;;;12.23;7.18;;;8.10;99.90;;;;;;5036339;28;20088;-73
2022/04/21 01:02:52;;;;;;;12.23;7.80;;;8.00;99.90;;;;;;5035862;28;20049;-73
2022/04/21 01:05:26;;;;;;;13.38;7.20;;;8.00;99.90;;;;;;5037684;28;20124;-73
2022/04/21 01:08:06;;;;;;;13.68;7.82;;;8.00;99.90;;;;;;5038308;28;20112;-73
2022/04/21 01:10:35;;;;;;;14.07;8.85;;;7.90;99.90;;;;;;5041016;28;20061;-73
2022/04/21 01:13:04;;;;;;;11.77;7.18;;;7.90;99.90;;;;;;5026846;28;20033;-73
2022/04/21 01:15:29;;;;;;;18.50;9.30;;;7.90;99.90;;;;;;5045319;28;20057;-72
2022/04/21 01:17:55;;;;;;;13.70;7.22;;;7.90;99.90;;;;;;5044697;28;20045;-73
2022/04/21 01:20:26;;;;;;;14.07;8.65;;;7.80;99.90;;;;;;5026936;28;20568;-73
2022/04/21 01:22:53;;;;;;;14.48;8.18;;;7.80;99.90;;;;;;5038505;28;20044;-73
2022/04/21 01:25:20;;;;;;;13.73;8.30;;;7.80;99.90;;;;;;5037999;28;20095;-73
2022/04/21 01:27:48;;;;;;;14.93;8.27;;;7.70;99.90;;;;;;5041630;28;20044;-73
2022/04/21 01:30:14;;;;;;;16.55;8.73;;;7.80;99.90;;;;;;5041972;28;20758;-73
2022/04/21 01:32:44;;;;;;;12.68;7.93;;;7.70;99.90;;;;;;5041010;28;20199;-73
2022/04/21 01:35:11;;;;;;;14.77;8.20;;;7.70;99.90;;;;;;5027884;28;20045;-73
2022/04/21 01:43:08;;;;;;;15.13;8.40;;;7.60;99.90;;;;;;5033568;28;20574;-73
2022/04/21 01:45:34;;;;;;;14.68;8.35;;;7.50;99.90;;;;;;5031376;28;20060;-73
2022/04/21 01:48:04;;;;;;;12.50;8.30;;;7.50;99.90;;;;;;5037414;28;20049;-73
2022/04/21 01:50:30;;;;;;;14.70;7.72;;;7.50;99.90;;;;;;5029387;28;20061;-73
2022/04/21 01:52:57;;;;;;;16.67;9.90;;;7.50;99.90;;;;;;5038295;28;20072;-73
2022/04/21 01:55:23;;;;;;;13.15;8.50;;;7.40;99.90;;;;;;5045997;28;20056;-72
2022/04/21 01:57:49;;;;;;;17.77;10.00;;;7.40;99.90;;;;;;5041838;28;20045;-73
2022/04/21 02:00:15;;;;;;;17.75;10.20;;;7.40;99.90;;;;;;5035754;28;20045;-73
2022/04/21 02:02:40;;;;;;;16.50;9.27;;;7.40;99.90;;;;;;5046805;28;20130;-73
2022/04/21 02:05:06;;;;;;;16.45;9.65;;;7.40;99.90;;;;;;5032936;28;20508;-72
2022/04/21 02:07:32;;;;;;;17.98;8.90;;;7.30;99.90;;;;;;5037389;28;20049;-72
2022/04/21 02:09:59;;;;;;;17.02;10.18;;;7.30;99.90;;;;;;5030684;28;20044;-73
2022/04/21 02:12:25;;;;;;;14.45;9.27;;;7.30;99.90;;;;;;5039377;28;20041;-73
2022/04/21 02:14:51;;;;;;;18.02;10.15;;;7.30;99.90;;;;;;5038222;28;20057;-73
2022/04/21 02:17:17;;;;;;;15.40;10.30;;;7.30;99.90;;;;;;5035591;28;20446;-73
2022/04/21 02:19:43;;;;;;;15.18;9.50;;;7.30;99.90;;;;;;5038509;28;20086;-72
2022/04/21 02:22:10;;;;;;;16.40;10.57;;;7.30;99.90;;;;;;5035922;28;20413;-72
2022/04/21 02:24:35;;;;;;;16.75;9.43;;;7.40;99.90;;;;;;5031327;28;20040;-73
2022/04/21 02:27:01;;;;;;;15.15;9.70;;;7.20;99.90;;;;;;5030658;28;20049;-73
2022/04/21 02:29:27;;;;;;;16.90;10.18;;;7.20;99.90;;;;;;5011548;28;20033;-73
2022/04/21 02:31:52;;;;;;;15.75;9.23;;;7.20;99.90;;;;;;5039669;28;20127;-72
2022/04/21 02:34:21;;;;;;;17.33;9.77;;;7.20;99.90;;;;;;5042557;28;20591;-73
2022/04/21 02:36:47;;;;;;;15.68;10.45;;;7.20;99.90;;;;;;5042977;28;20123;-72
2022/04/21 02:39:15;;;;;;;16.55;9.85;;;7.10;99.90;;;;;;5043225;28;20049;-73
2022/04/21 02:41:42;;;;;;;19.27;10.10;;;7.10;99.90;;;;;;5046167;28;20401;-72
2022/04/21 02:44:09;;;;;;;14.68;9.38;;;7.10;99.90;;;;;;5046915;28;20480;-73
2022/04/21 02:46:35;;;;;;;15.50;9.27;;;7.10;99.90;;;;;;5051191;28;20044;-73
2022/04/21 02:49:03;;;;;;;18.60;10.02;;;7.10;99.90;;;;;;5049321;28;20051;-73
2022/04/21 02:51:32;;;;;;;14.82;9.80;;;7.10;99.90;;;;;;5049765;28;20056;-73
2022/04/21 02:59:27;;;;;;;17.00;10.10;;;7.00;99.90;;;;;;5062376;28;20041;-73
2022/04/21 03:01:53;;;;;;;15.00;9.40;;;7.00;99.90;;;;;;5049121;28;20061;-73
2022/04/21 03:04:20;;;;;;;14.90;9.73;;;7.00;99.90;;;;;;5046045;28;20409;-73
2022/04/21 03:06:50;;;;;;;16.08;9.18;;;7.00;99.90;;;;;;5047253;28;20041;-73
2022/04/21 03:09:16;;;;;;;16.00;9.85;;;7.00;99.90;;;;;;5046003;28;20086;-73
2022/04/21 03:11:42;;;;;;;15.70;8.85;;;7.00;99.90;;;;;;5050302;28;20033;-72
2022/04/21 03:14:07;;;;;;;16.85;9.18;;;7.00;99.90;;;;;;5062183;28;20535;-72
2022/04/21 03:16:34;;;;;;;16.75;9.10;;;6.90;99.90;;;;;;5047668;28;20029;-73
2022/04/21 03:19:00;;;;;;;16.05;9.25;;;6.90;99.90;;;;;;5040210;28;20055;-73
2022/04/21 03:24:19;;;;;;;12.18;8.35;;;6.90;99.90;;;;;;5035579;28;20412;-73
2022/04/21 03:26:52;;;;;;;14.20;9.30;;;6.90;99.90;;;;;;5048103;28;20037;-73
2022/04/21 03:29:21;;;;;;;16.00;8.80;;;6.80;99.90;;;;;;5048389;28;20087;-73
2022/04/21 03:31:48;;;;;;;14.77;9.38;;;6.80;99.90;;;;;;5047367;28;20507;-73
2022/04/21 03:34:16;;;;;;;17.30;9.45;;;6.80;99.90;;;;;;5044978;28;20064;-72
2022/04/21 03:36:47;;;;;;;13.85;8.73;;;6.70;99.90;;;;;;5044545;28;20072;-73
2022/04/21 03:39:13;;;;;;;15.52;9.02;;;6.70;99.90;;;;;;5047495;28;20103;-73
2022/04/21 03:41:42;;;;;;;15.00;9.07;;;6.70;99.90;;;;;;5042761;28;20133;-73
2022/04/21 03:44:09;;;;;;;14.10;8.90;;;6.60;99.90;;;;;;5047050;28;20789;-73
2022/04/21 03:46:35;;;;;;;15.15;9.02;;;6.60;99.90;;;;;;5046387;28;20445;-73
2022/04/21 03:49:00;;;;;;;16.08;9.38;;;6.60;99.90;;;;;;5040127;28;20534;-73
2022/04/21 03:51:27;;;;;;;15.25;9.07;;;6.50;99.90;;;;;;5046542;28;20053;-72
2022/04/21 03:53:54;;;;;;;15.57;9.32;;;6.50;99.90;;;;;;5045745;28;20516;-73
2022/04/21 03:56:20;;;;;;;16.05;9.32;;;6.50;99.90;;;;;;5044957;28;20124;-73
2022/04/21 03:58:47;;;;;;;15.90;9.32;;;6.50;99.90;;;;;;5045876;28;20167;-73
2022/04/21 04:01:13;;;;;;;13.45;9.13;;;6.40;99.90;;;;;;5044411;28;20096;-73
2022/04/21 04:03:39;;;;;;;12.82;8.85;;;6.40;99.90;;;;;;5047185;28;20072;-73
2022/04/21 04:10:51;;;;;;;14.40;9.80;;;6.40;99.90;;;;;;5046315;28;20048;-73
2022/04/21 04:11:36;;;;;;;15.02;9.63;;;6.30;99.90;;;;;;5044528;28;20046;-73
2022/04/21 04:14:01;;;;;;;16.65;10.13;;;6.30;99.90;;;;;;5046060;28;20041;-72
2022/04/21 04:16:28;;;;;;;16.25;9.85;;;6.30;99.90;;;;;;5038364;28;20404;-73
2022/04/21 04:18:54;;;;;;;13.65;8.57;;;6.30;99.90;;;;;;5042584;28;20040;-73
2022/04/21 04:21:20;;;;;;;16.98;9.48;;;6.20;99.90;;;;;;5041852;28;20053;-73
2022/04/21 04:23:47;;;;;;;16.70;9.80;;;6.20;99.90;;;;;;5032585;28;20455;-72
2022/04/21 04:26:12;;;;;;;16.55;9.20;;;6.20;99.90;;;;;;5036517;28;20144;-73
2022/04/21 04:28:38;;;;;;;16.50;8.82;;;6.40;99.90;;;;;;5045758;28;20507;-73
2022/04/21 04:31:04;;;;;;;14.05;8.40;;;6.20;99.90;;;;;;5043434;28;20118;-73
2022/04/21 04:33:30;;;;;;;15.20;9.18;;;6.20;99.90;;;;;;5046351;28;20052;-73
2022/04/21 04:35:56;;;;;;;13.68;8.57;;;6.20;99.90;;;;;;5045129;28;20087;-73
2022/04/21 04:38:21;;;;;;;13.75;8.55;;;6.20;99.90;;;;;;5047202;28;20053;-73
2022/04/21 04:40:50;;;;;;;13.30;8.52;;;6.20;99.90;;;;;;5043674;28;20414;-72
2022/04/21 04:43:16;;;;;;;16.50;8.98;;;6.20;99.90;;;;;;5047075;28;20056;-73
2022/04/21 04:48:26;;;;;;;15.60;8.75;;;6.20;99.90;;;;;;5042059;28;20122;-73
2022/04/21 04:50:51;;;;;;;16.67;8.63;;;6.20;99.90;;;;;;5041873;28;20037;-73
2022/04/21 04:53:17;;;;;;;15.75;8.50;;;6.20;99.90;;;;;;5043602;28;20041;-73
2022/04/21 04:55:43;;;;;;;15.98;9.00;;;6.20;99.90;;;;;;5046632;28;20095;-73
2022/04/21 04:58:08;;;;;;;14.32;7.65;;;6.20;99.90;;;;;;5045314;28;20041;-73
2022/04/21 05:00:34;;;;;;;13.15;8.25;;;6.30;99.90;;;;;;5041082;28;20141;-72
2022/04/21 05:03:00;;;;;;;12.50;7.32;;;6.20;99.90;;;;;;5038049;28;20139;-72
2022/04/21 05:05:25;;;;;;;15.65;8.20;;;6.30;99.90;;;;;;5018176;28;20041;-72
2022/04/21 05:07:55;;;;;;;12.55;7.63;;;6.30;99.90;;;;;;5045604;28;20071;-72
2022/04/21 05:10:23;;;;;;;13.70;7.88;;;6.30;99.90;;;;;;5053479;28;20048;-72
2022/04/21 05:12:56;;;;;;;12.30;7.75;;;6.30;99.90;;;;;;5050836;28;20049;-72
2022/04/21 05:15:22;;;;;;;13.93;7.75;;;6.30;99.90;;;;;;5043838;28;20044;-72
2022/04/21 05:17:48;;;;;;;13.52;7.75;;;6.40;99.90;;;;;;5026225;28;20049;-71
2022/04/21 05:20:15;;;;;;;16.38;8.30;;;6.40;99.90;;;;;;5055220;28;20430;-72
2022/04/21 05:22:47;;;;;;;13.20;7.90;;;6.40;99.90;;;;;;5039319;28;20049;-72
2022/04/21 05:25:13;;;;;;;15.32;7.90;;;6.50;99.90;;;;;;5042414;28;20094;-72
2022/04/21 05:27:39;;;;;;;16.02;8.45;;;6.50;99.90;;;;;;5037906;28;20038;-72
2022/04/21 05:32:51;;;;;;;;;;;6.50;99.90;;;;;;5049430;28;20057;-73
2022/04/21 05:35:17;;;;;;;13.15;7.57;;;6.60;99.90;;;;;;5052329;28;19975;-72
2022/04/21 05:37:43;;;;;;;12.07;7.65;;;6.60;99.90;;;;;;5057425;28;20041;-73
2022/04/21 05:40:09;;;;;;;13.18;7.22;;;6.70;99.90;;;;;;5052616;28;20503;-75
2022/04/21 05:42:36;;;;;;;12.88;7.75;;;6.70;99.90;;;;;;5060072;28;20404;-75
2022/04/21 05:45:03;;;;;;;13.57;8.15;;;6.70;99.90;;;;;;5049296;28;20045;-74
2022/04/21 05:47:31;;;;;;;11.38;7.35;;;6.70;99.90;;;;;;5049269;28;20076;-73
2022/04/21 05:49:57;;;;;;;14.30;8.27;;;6.80;99.90;;;;;;5055700;28;20058;-73
2022/04/21 05:52:25;;;;;;;16.63;8.43;;;6.90;99.90;;;;;;5047536;28;20114;-75
2022/04/21 05:54:51;;;;;;;14.27;7.30;;;6.90;99.90;;;;;;5053524;28;20045;-76
2022/04/21 05:57:17;;;;;;;12.10;7.50;;;7.00;99.90;;;;;;5054026;28;20051;-76
2022/04/21 05:59:42;;;;;;;14.48;7.55;;;7.00;99.90;;;;;;5053343;28;20041;-76
2022/04/21 06:02:12;;;;;;;12.90;7.72;;;7.10;99.90;;;;;;5053317;28;20503;-75
2022/04/21 06:04:41;;;;;;;12.20;7.63;;;7.10;99.90;;;;;;5052310;28;20045;-76
2022/04/21 06:07:06;;;;;;;13.85;7.88;;;7.20;99.90;;;;;;5054675;28;20102;-76
2022/04/21 06:09:32;;;;;;;12.88;8.25;;;7.20;99.90;;;;;;5054529;28;20041;-76
2022/04/21 06:11:58;;;;;;;13.27;7.82;;;7.30;99.90;;;;;;5059851;28;20036;-76
2022/04/21 06:14:26;;;;;;;14.45;7.57;;;7.30;99.90;;;;;;5052039;28;20413;-77
2022/04/21 06:16:52;;;;;;;15.18;8.07;;;7.40;99.90;;;;;;5056307;28;20053;-77
2022/04/21 06:19:17;;;;;;;12.90;8.00;;;7.40;99.90;;;;;;5053582;28;20045;-75
2022/04/21 06:21:43;;;;;;;14.55;7.90;;;7.50;99.90;;;;;;5043603;28;20041;-80
2022/04/21 06:24:09;;;;;;;13.60;7.63;;;7.50;99.90;;;;;;5039766;28;20211;-75
2022/04/21 06:26:36;;;;;;;14.57;8.13;;;7.60;99.90;;;;;;5041581;28;20082;-79
2022/04/21 06:29:02;;;;;;;11.40;7.32;;;7.70;99.90;;;;;;5047630;28;20048;-79
2022/04/21 06:31:28;;;;;;;13.07;6.97;;;7.80;99.90;;;;;;5050179;28;20042;-78
2022/04/21 06:33:53;;;;;;;10.60;7.47;;;7.90;99.90;;;;;;5041566;28;20107;-80
2022/04/21 06:36:19;;;;;;;15.13;6.60;;;8.10;99.90;;;;;;5046502;28;20504;-76
2022/04/21 06:38:45;;;;;;;11.75;6.53;;;8.20;99.90;;;;;;5053251;28;20537;-77
2022/04/21 06:41:11;;;;;;;11.80;6.43;;;8.30;99.90;;;;;;5055958;28;20037;-81
2022/04/21 06:49:06;;;;;;;8.68;5.38;;;8.60;99.90;;;;;;5053953;28;20492;-80
2022/04/21 06:51:31;;;;;;;9.73;5.70;;;8.70;99.90;;;;;;5052709;28;20049;-80
2022/04/21 06:53:57;;;;;;;9.98;5.32;;;8.70;99.90;;;;;;5054166;28;20041;-80
2022/04/21 06:56:23;;;;;;;10.90;5.45;;;8.90;99.90;;;;;;5052750;28;20447;-80
2022/04/21 06:58:49;;;;;;;9.50;4.75;;;9.00;99.90;;;;;;5052163;28;20041;-81
2022/04/21 07:01:15;;;;;;;7.88;4.68;;;9.00;99.90;;;;;;5052630;28;20507;-81
2022/04/21 07:03:40;;;;;;;8.98;4.88;;;9.20;99.90;;;;;;5071948;28;20052;-81
2022/04/21 07:06:06;;;;;;;9.30;4.82;;;9.30;99.90;;;;;;5060528;28;20083;-81
2022/04/21 07:08:32;;;;;;;7.90;4.05;;;9.30;99.90;;;;;;5057523;28;20049;-81
2022/04/21 07:10:58;;;;;;;8.20;4.50;;;9.40;99.90;;;;;;5053754;28;20128;-80
2022/04/21 07:13:24;;;;;;;7.07;4.20;;;9.60;99.90;;;;;;5053431;28;20033;-80
2022/04/21 07:15:49;;;;;;;8.25;3.95;;;9.60;99.90;;;;;;5052221;28;20041;-80
2022/04/21 07:18:16;;;;;;;7.13;4.00;;;9.60;99.90;;;;;;5051385;28;20052;-80
2022/04/21 07:20:42;;;;;;;8.77;3.83;;;9.80;99.90;;;;;;5048963;28;20044;-80
2022/04/21 07:23:07;;;;;;;7.68;3.88;;;9.80;99.90;;;;;;5047281;28;20033;-80
2022/04/21 07:25:33;;;;;;;9.77;3.85;;;9.80;99.90;;;;;;5050718;28;20098;-80
2022/04/21 07:27:59;;;;;;;7.88;3.50;;;9.90;99.90;;;;;;5052007;28;20051;-80
2022/04/21 07:30:25;;;;;;;7.68;3.50;;;10.00;99.90;;;;;;5045326;28;20079;-81
2022/04/21 07:32:50;;;;;;;6.50;3.25;;;10.10;99.90;;;;;;5050976;28;20049;-80
2022/04/21 07:35:17;;;;;;;7.60;3.55;;;10.20;99.90;;;;;;5051931;28;20048;-79
2022/04/21 07:37:42;;;;;;;8.45;3.30;;;10.20;99.90;;;;;;5051675;28;20041;-78
2022/04/21 07:40:08;;;;;;;7.70;3.55;;;10.30;99.90;;;;;;5048745;28;20396;-79
2022/04/21 07:42:35;;;;;;;6.20;2.85;;;10.30;99.90;;;;;;5052013;28;20400;-79
2022/04/21 07:45:01;;;;;;;5.97;3.25;;;10.40;99.90;;;;;;5053606;28;20447;-79
2022/04/21 07:47:27;;;;;;;7.07;3.17;;;10.40;99.90;;;;;;5050944;28;20045;-79
2022/04/21 07:49:53;;;;;;;5.45;2.92;;;10.50;99.90;;;;;;5052555;28;20044;-79
2022/04/21 07:55:08;;;;;;;5.70;3.30;;;10.70;99.90;;;;;;5051224;28;20049;-79
2022/04/21 07:57:34;;;;;;;7.45;3.42;;;10.70;99.90;;;;;;5051308;28;20057;-79
2022/04/21 08:00:01;;;;;;;8.52;2.88;;;10.80;99.90;;;;;;5052553;28;20094;-79
2022/04/21 08:02:26;;;;;;;5.88;3.47;;;10.90;99.90;;;;;;5051732;28;20053;-79
2022/04/21 08:04:52;;;;;;;6.22;3.50;;;11.00;99.90;;;;;;5052364;28;20037;-79
2022/04/21 08:07:17;;;;;;;5.68;2.72;;;11.20;99.90;;;;;;5051334;28;20049;-79
2022/04/21 08:09:43;;;;;;;5.85;3.30;;;11.20;99.90;;;;;;5051234;28;20041;-79
2022/04/21 08:12:09;;;;;;;5.35;3.05;;;11.20;99.90;;;;;;5052965;28;20052;-79
2022/04/21 08:14:35;;;;;;;6.75;3.22;;;11.30;99.90;;;;;;5051044;28;20045;-79
2022/04/21 08:17:02;;;;;;;6.88;3.15;;;11.40;99.90;;;;;;5052461;28;20451;-78
2022/04/21 08:19:28;;;;;;;7.80;3.25;;;11.50;99.90;;;;;;5059980;28;20508;-79
2022/04/21 08:21:53;;;;;;;8.48;3.00;;;11.70;99.90;;;;;;5051022;28;20044;-79
2022/04/21 08:32:41;;;;;;;6.82;3.15;;;12.30;99.90;;;;;;5048264;28;20052;-80
2022/04/21 08:35:09;;;;;;;7.10;3.45;;;12.40;99.90;;;;;;5050733;28;20060;-81
2022/04/21 08:37:36;;;;;;;6.97;3.20;;;12.60;99.90;;;;;;5052090;28;20068;-79
2022/04/21 08:40:03;;;;;;;6.47;3.10;;;12.70;99.90;;;;;;5051793;28;20040;-79
2022/04/21 08:42:39;;;;;;;7.82;3.35;;;12.90;99.90;;;;;;5049882;28;20114;-78
2022/04/21 08:45:06;;;;;;;9.05;3.17;;;13.00;99.90;;;;;;5050776;28;20492;-80
2022/04/21 08:47:32;;;;;;;5.82;2.80;;;13.10;99.90;;;;;;5052047;28;20060;-79
2022/04/21 08:50:13;;;;;;;5.70;3.47;;;13.20;99.90;;;;;;5049725;28;20124;-76
2022/04/21 08:52:42;;;;;;;6.35;3.33;;;13.40;99.90;;;;;;5051060;28;20102;-77
2022/04/21 08:55:09;;;;;;;6.25;2.95;;;13.50;99.90;;;;;;5062320;28;20044;-77
2022/04/21 08:57:35;;;;;;;8.18;3.20;;;13.60;99.90;;;;;;5071030;28;20055;-78
2022/04/21 09:00:03;;;;;;;9.43;3.10;;;13.70;99.90;;;;;;5068587;28;20079;-77
2022/04/21 09:02:42;;;;;;;5.18;3.17;;;13.80;98.80;;;;;;5049859;28;20089;-77
2022/04/21 09:05:08;;;;;;;7.28;2.67;;;13.90;98.10;;;;;;5050532;28;20139;-78
2022/04/21 09:07:53;;;;;;;6.60;3.25;;;14.00;98.20;;;;;;5051009;28;20623;-78
2022/04/21 09:10:20;;;;;;;6.78;2.58;;;14.10;97.60;;;;;;5050098;28;20087;-78
2022/04/21 09:12:52;;;;;;;6.88;2.83;;;14.10;97.00;;;;;;5049728;28;20060;-79
2022/04/21 09:15:20;;;;;;;6.95;3.08;;;14.20;97.70;;;;;;5058223;28;20411;-79
2022/04/21 09:17:47;;;;;;;7.70;3.28;;;14.30;97.90;;;;;;5052172;28;20133;-80
2022/04/21 09:20:16;;;;;;;5.05;3.13;;;14.50;98.50;;;;;;5051584;28;20124;-78
2022/04/21 09:22:54;;;;;;;7.35;3.25;;;14.60;97.00;;;;;;5044817;28;20041;-78
2022/04/21 09:25:25;;;;;;;7.60;3.30;;;14.70;97.50;;;;;;5050336;28;20055;-77
2022/04/21 09:27:52;;;;;;;8.50;3.50;;;14.90;96.90;;;;;;5051316;28;20040;-78
2022/04/21 09:30:18;;;;;;;5.93;2.92;;;15.00;96.50;;;;;;5051409;28;20384;-78
2022/04/21 09:32:52;;;;;;;7.03;2.88;;;15.00;95.40;;;;;;5062474;28;20396;-78
2022/04/21 09:35:19;;;;;;;4.90;3.25;;;15.20;95.90;;;;;;5046156;28;20094;-78
2022/04/21 09:37:49;;;;;;;4.93;3.30;;;15.20;95.60;;;;;;5048533;28;20128;-79
2022/04/21 09:40:17;;;;;;;7.18;3.45;;;15.30;95.40;;;;;;5071215;28;20119;-78
2022/04/21 09:42:42;;;;;;;7.57;3.72;;;15.40;94.60;;;;;;5044468;28;20040;-78
2022/04/21 09:47:56;;;;;;;6.10;2.95;;;15.50;95.10;;;;;;5052866;28;20119;-78
2022/04/21 09:50:25;;;;;;;6.65;3.47;;;15.50;94.80;;;;;;5048781;28;20488;-78
2022/04/21 09:52:54;;;;;;;6.85;4.00;;;15.60;95.00;;;;;;5048407;28;20032;-78
2022/04/21 09:55:30;;;;;;;6.70;3.50;;;15.80;95.10;;;;;;5064469;28;20492;-75
2022/04/21 09:58:09;;;;;;;6.88;3.83;;;15.90;95.00;;;;;;5068393;28;20102;-78
2022/04/21 10:00:36;;;;;;;11.73;4.28;;;16.00;94.20;;;;;;5049714;28;20132;-78
2022/04/21 10:03:02;;;;;;;5.80;3.80;;;16.10;94.40;;;;;;5049747;28;20056;-78
2022/04/21 10:05:33;;;;;;;7.80;3.25;;;16.20;93.80;;;;;;5049458;28;20044;-78
2022/04/21 10:08:00;;;;;;;8.38;3.47;;;16.20;93.90;;;;;;5051254;28;20041;-77
2022/04/21 10:10:29;;;;;;;5.28;2.80;;;16.30;94.30;;;;;;5049135;28;20040;-77
2022/04/21 10:13:00;;;;;;;10.32;3.45;;;16.40;93.30;;;;;;5050147;28;20112;-77
2022/04/21 10:15:31;;;;;;;7.07;2.90;;;16.40;92.00;;;;;;5050924;28;20041;-76
2022/04/21 10:17:58;;;;;;;6.43;3.15;;;16.50;93.10;;;;;;5049248;28;20088;-77
2022/04/21 10:20:26;;;;;;;8.25;3.13;;;16.50;92.10;;;;;;5049008;28;20090;-77
2022/04/21 10:22:54;;;;;;;5.75;3.15;;;16.70;92.80;;;;;;5046249;28;20052;-77
2022/04/21 10:25:32;;;;;;;8.75;2.95;;;16.80;92.00;;;;;;5052141;28;20041;-77
2022/04/21 10:27:58;;;;;;;5.72;3.00;;;16.80;91.40;;;;;;5049248;28;20037;-77
2022/04/21 10:30:30;;;;;;;7.13;2.85;;;17.00;92.10;;;;;;5050544;28;20056;-76
2022/04/21 10:33:01;;;;;;;5.22;2.60;;;17.10;91.10;;;;;;5068426;28;20075;-77
2022/04/21 10:35:36;;;;;;;7.80;2.60;;;17.20;88.70;;;;;;5070284;28;20051;-77
2022/04/21 10:38:13;;;;;;;;;;;17.20;88.60;;;;;;5069998;28;20048;-77
2022/04/21 10:41:10;;;;;;;6.13;3.03;;;17.30;90.00;;;;;;5049731;28;19959;-77
2022/04/21 10:43:48;;;;;;;4.50;2.45;;;17.40;88.70;;;;;;5048773;28;20063;-77
2022/04/21 10:46:22;;;;;;;6.07;2.72;;;17.50;88.50;;;;;;5049536;28;20094;-77
2022/04/21 10:48:49;;;;;;;5.30;2.72;;;17.70;89.30;;;;;;5048661;28;20087;-77
2022/04/21 10:57:34;;;;;;;10.02;2.88;;;17.90;85.80;;;;;;5049746;28;20049;-75
2022/04/21 11:00:05;;;;;;;4.40;2.83;;;17.80;86.10;;;;;;5048536;28;20045;-75
2022/04/21 11:02:41;;;;;;;5.28;2.45;;;18.00;87.00;;;;;;5050396;28;20049;-75
2022/04/21 11:05:22;;;;;;;6.93;2.78;;;18.10;86.30;;;;;;5049692;28;20106;-75
2022/04/21 11:07:56;;;;;;;5.47;2.58;;;18.20;84.80;;;;;;5051821;28;20071;-74
2022/04/21 11:10:41;;;;;;;4.22;2.83;;;18.20;83.30;;;;;;5049982;28;20052;-74
2022/04/21 11:13:09;;;;;;;7.97;2.85;;;18.30;81.50;;;;;;5051358;28;20125;-75
2022/04/21 11:15:53;;;;;;;4.20;2.53;;;18.30;82.10;;;;;;5051801;28;20044;-74
2022/04/21 11:18:20;;;;;;;5.20;2.28;;;18.40;80.90;;;;;;5052131;28;20084;-74
2022/04/21 11:20:50;;;;;;;6.43;2.97;;;18.50;81.30;;;;;;5054636;28;20049;-77
2022/04/21 11:23:45;;;;;;;5.32;2.88;;;18.60;82.00;;;;;;5048236;28;20041;-77
2022/04/21 11:26:11;;;;;;;6.25;2.60;;;18.70;80.00;;;;;;5061770;28;20041;-77
2022/04/21 11:28:43;;;;;;;4.40;2.33;;;18.80;83.00;;;;;;5055525;28;20435;-77
2022/04/21 11:31:08;;;;;;;6.72;3.30;;;19.00;81.10;;;;;;5056790;28;20043;-77
2022/04/21 11:33:35;;;;;;;5.68;2.55;;;19.00;78.80;;;;;;5069889;28;20045;-78
2022/04/21 11:36:06;;;;;;;4.75;2.30;;;19.10;80.40;;;;;;5053643;28;20067;-78
2022/04/21 11:38:42;;;;;;;7.15;2.25;;;19.20;78.80;;;;;;5052847;28;20045;-79
2022/04/21 11:41:10;;;;;;;4.65;2.63;;;19.30;78.40;;;;;;5053701;28;20044;-79
2022/04/21 11:43:37;;;;;;;7.20;3.15;;;19.40;78.60;;;;;;5052162;28;20126;-82
2022/04/21 11:46:07;;;;;;;8.20;2.92;;;19.50;79.30;;;;;;5051975;28;20041;-79
2022/04/21 11:48:38;;;;;;;5.47;2.90;;;19.60;76.80;;;;;;5051659;28;20045;-79
2022/04/21 11:51:11;;;;;;;7.97;2.88;;;19.60;77.50;;;;;;5051710;28;20140;-79
2022/04/21 11:53:40;;;;;;;6.00;3.10;;;19.60;75.20;;;;;;5066189;28;20060;-79
2022/04/21 11:56:08;;;;;;;6.05;2.75;;;19.60;76.20;;;;;;5040753;28;20103;-79
2022/04/21 11:58:38;;;;;;;4.82;2.63;;;19.60;76.60;;;;;;5051583;28;20124;-79
2022/04/21 12:06:50;;;;;;;6.40;3.00;;;19.70;73.10;;;;;;5051716;28;20076;-79
2022/04/21 12:09:17;;;;;;;5.15;2.95;;;19.50;74.80;;;;;;5051785;28;20345;-79
2022/04/21 12:11:57;;;;;;;5.78;2.38;;;19.20;75.20;;;;;;5052775;28;20041;-79
2022/04/21 12:14:24;;;;;;;4.30;2.50;;;19.10;75.80;;;;;;5052217;28;20130;-75
2022/04/21 12:17:00;;;;;;;5.65;3.10;;;18.90;75.40;;;;;;5057254;28;20048;-75
2022/04/21 12:19:45;;;;;;;7.35;2.83;;;18.80;75.50;;;;;;5051136;28;20044;-75
2022/04/21 12:22:19;;;;;;;5.38;3.20;;;18.70;76.40;;;;;;5047534;28;20048;-75
2022/04/21 12:24:54;;;;;;;6.57;2.70;;;18.70;77.30;;;;;;5036035;28;20509;-75
2022/04/21 12:27:29;;;;;;;4.55;2.70;;;18.80;78.50;;;;;;5039838;28;20061;-75
2022/04/21 12:30:04;;;;;;;7.35;2.20;;;18.90;77.10;;;;;;5051911;28;20070;-75
2022/04/21 12:32:35;;;;;;;6.10;3.08;;;19.10;79.30;;;;;;5067079;28;20101;-76
2022/04/21 12:35:08;;;;;;;6.45;3.00;;;19.30;78.30;;;;;;5058788;28;20041;-76
2022/04/21 12:38:50;;;;;;;6.78;2.72;;;19.60;76.40;;;;;;5051133;28;20056;-79
2022/04/21 12:40:41;;;;;;;4.97;3.08;;;19.80;76.80;;;;;;5051057;28;20527;-80
2022/04/21 12:43:07;;;;;;;6.63;3.30;;;20.20;76.40;;;;;;5051127;28;20049;-77
2022/04/21 12:45:32;;;;;;;8.15;2.72;;;20.20;73.30;;;;;;5050050;28;20044;-78
2022/04/21 12:47:58;;;;;;;6.60;3.35;;;20.20;73.70;;;;;;5051487;28;20108;-77
2022/04/21 12:50:25;;;;;;;6.25;3.10;;;20.20;74.50;;;;;;5049824;28;20404;-77
2022/04/21 12:52:53;;;;;;;4.68;3.40;;;20.20;73.70;;;;;;5050344;28;20074;-79
2022/04/21 12:55:22;;;;;;;4.70;2.85;;;20.20;74.10;;;;;;5050186;28;20051;-75
2022/04/21 12:58:09;;;;;;;8.48;3.45;;;20.20;75.10;;;;;;5050559;28;20128;-77
2022/04/21 13:00:36;;;;;;;6.53;3.67;;;20.20;73.00;;;;;;5051268;28;20056;-77
2022/04/21 13:03:03;;;;;;;7.20;3.35;;;20.20;73.80;;;;;;5051222;28;20099;-75
2022/04/21 13:05:29;;;;;;;5.97;2.85;;;20.00;74.00;;;;;;5050822;28;20048;-75
2022/04/21 13:07:56;;;;;;;6.57;3.40;;;20.00;75.10;;;;;;5050614;28;20127;-77
2022/04/21 13:10:22;;;;;;;7.07;3.05;;;20.00;75.30;;;;;;5051306;28;20048;-76
2022/04/21 13:12:48;;;;;;;8.25;3.40;;;20.10;73.70;;;;;;5051074;28;20033;-78
2022/04/21 13:15:14;;;;;;;7.15;3.03;;;20.10;73.20;;;;;;5051019;28;20095;-79
2022/04/21 13:17:40;;;;;;;8.35;3.08;;;20.10;72.30;;;;;;5050427;28;20048;-79
2022/04/21 13:20:07;;;;;;;5.03;2.88;;;20.00;72.30;;;;;;5049629;28;20443;-79
2022/04/21 13:22:32;;;;;;;4.97;3.28;;;20.00;72.80;;;;;;5046916;28;20496;-79
2022/04/21 13:24:58;;;;;;;6.35;3.35;;;20.00;72.10;;;;;;5050231;28;20056;-80
2022/04/21 13:27:26;;;;;;;7.25;3.05;;;19.90;72.00;;;;;;5051261;28;20041;-80
2022/04/21 13:29:53;;;;;;;5.43;3.28;;;19.90;72.10;;;;;;5049579;28;20049;-80
2022/04/21 13:35:05;;;;;;;10.40;4.32;;;19.80;71.60;;;;;;5050504;28;20052;-79
2022/04/21 13:37:30;;;;;;;9.57;3.97;;;19.80;72.80;;;;;;5048665;28;20135;-79
2022/04/21 13:39:56;;;;;;;8.05;3.92;;;19.80;72.90;;;;;;5051404;28;20124;-79
2022/04/21 13:42:22;;;;;;;7.07;3.92;;;19.90;72.40;;;;;;5050411;28;20041;-79
2022/04/21 13:44:47;;;;;;;6.38;3.95;;;20.00;72.80;;;;;;5049170;28;20041;-77
2022/04/21 13:47:13;;;;;;;6.90;4.50;;;20.10;72.90;;;;;;5051118;28;20049;-80
2022/04/21 13:49:43;;;;;;;8.02;3.97;;;20.10;72.50;;;;;;5050760;28;20392;-80
2022/04/21 13:52:11;;;;;;;6.63;4.10;;;20.10;72.00;;;;;;5050732;28;20041;-79